sensor_id;sensor_type;location;lat;lon;timestamp;P1;durP1;ratioP1;P2;durP2;ratioP2
66163;SDS011;52962;51.088;3.096;2023-04-15T00:00:07;1.13;;;1.02;;
66163;SDS011;52962;51.088;3.096;2023-04-15T00:02:39;1.80;;;1.70;;
66163;SDS011;52962;51.088;3.096;2023-04-15T00:05:08;2.05;;;1.85;;
66163;SDS011;52962;51.088;3.096;2023-04-15T00:07:36;1.50;;;1.40;;
66163;SDS011;52962;51.088;3.096;2023-04-15T00:10:04;2.22;;;1.50;;
66163;SDS011;52962;51.088;3.096;2023-04-15T00:12:33;1.90;;;1.40;;
66163;SDS011;52962;51.088;3.096;2023-04-15T00:15:03;1.40;;;1.30;;
66163;SDS011;52962;51.088;3.096;2023-04-15T00:17:32;1.38;;;1.27;;
66163;SDS011;52962;51.088;3.096;2023-04-15T00:22:28;1.65;;;1.55;;
66163;SDS011;52962;51.088;3.096;2023-04-15T00:24:57;1.17;;;1.13;;
66163;SDS011;52962;51.088;3.096;2023-04-15T00:27:25;1.60;;;1.30;;
66163;SDS011;52962;51.088;3.096;2023-04-15T00:29:53;1.17;;;1.17;;
66163;SDS011;52962;51.088;3.096;2023-04-15T00:32:24;1.60;;;1.50;;
66163;SDS011;52962;51.088;3.096;2023-04-15T00:34:52;1.42;;;1.17;;
66163;SDS011;52962;51.088;3.096;2023-04-15T00:37:20;1.63;;;1.25;;
66163;SDS011;52962;51.088;3.096;2023-04-15T00:39:50;1.35;;;1.25;;
66163;SDS011;52962;51.088;3.096;2023-04-15T00:42:18;1.55;;;1.45;;
66163;SDS011;52962;51.088;3.096;2023-04-15T00:44:47;1.17;;;1.10;;
66163;SDS011;52962;51.088;3.096;2023-04-15T00:47:15;1.42;;;1.10;;
66163;SDS011;52962;51.088;3.096;2023-04-15T00:49:46;1.48;;;0.95;;
66163;SDS011;52962;51.088;3.096;2023-04-15T00:52:14;0.93;;;0.93;;
66163;SDS011;52962;51.088;3.096;2023-04-15T00:54:42;1.45;;;1.05;;
66163;SDS011;52962;51.088;3.096;2023-04-15T00:57:10;1.42;;;1.33;;
66163;SDS011;52962;51.088;3.096;2023-04-15T00:59:38;0.70;;;0.70;;
66163;SDS011;52962;51.088;3.096;2023-04-15T01:02:07;1.40;;;1.30;;
66163;SDS011;52962;51.088;3.096;2023-04-15T01:07:04;1.48;;;1.23;;
66163;SDS011;52962;51.088;3.096;2023-04-15T01:09:32;0.90;;;0.90;;
66163;SDS011;52962;51.088;3.096;2023-04-15T01:12:01;0.98;;;0.98;;
66163;SDS011;52962;51.088;3.096;2023-04-15T01:16:57;1.15;;;0.93;;
66163;SDS011;52962;51.088;3.096;2023-04-15T01:21:54;0.90;;;0.90;;
66163;SDS011;52962;51.088;3.096;2023-04-15T01:24:24;0.80;;;0.65;;
66163;SDS011;52962;51.088;3.096;2023-04-15T01:26:55;1.02;;;1.02;;
66163;SDS011;52962;51.088;3.096;2023-04-15T01:29:23;0.70;;;0.70;;
66163;SDS011;52962;51.088;3.096;2023-04-15T01:31:54;0.60;;;0.60;;
66163;SDS011;52962;51.088;3.096;2023-04-15T01:34:25;1.05;;;0.88;;
66163;SDS011;52962;51.088;3.096;2023-04-15T01:36:53;1.05;;;0.88;;
66163;SDS011;52962;51.088;3.096;2023-04-15T01:39:21;0.70;;;0.70;;
66163;SDS011;52962;51.088;3.096;2023-04-15T01:41:49;1.23;;;1.10;;
66163;SDS011;52962;51.088;3.096;2023-04-15T01:44:19;1.55;;;0.73;;
66163;SDS011;52962;51.088;3.096;2023-04-15T01:46:47;0.88;;;0.85;;
66163;SDS011;52962;51.088;3.096;2023-04-15T01:49:15;0.90;;;0.90;;
66163;SDS011;52962;51.088;3.096;2023-04-15T01:51:44;1.63;;;1.00;;
66163;SDS011;52962;51.088;3.096;2023-04-15T01:54:12;0.88;;;0.88;;
66163;SDS011;52962;51.088;3.096;2023-04-15T01:56:40;1.02;;;0.95;;
66163;SDS011;52962;51.088;3.096;2023-04-15T02:01:38;0.77;;;0.77;;
66163;SDS011;52962;51.088;3.096;2023-04-15T02:04:06;1.27;;;1.17;;
66163;SDS011;52962;51.088;3.096;2023-04-15T02:06:42;1.00;;;0.95;;
66163;SDS011;52962;51.088;3.096;2023-04-15T02:09:10;1.80;;;1.27;;
66163;SDS011;52962;51.088;3.096;2023-04-15T02:11:38;1.08;;;1.02;;
66163;SDS011;52962;51.088;3.096;2023-04-15T02:14:06;1.95;;;1.23;;
66163;SDS011;52962;51.088;3.096;2023-04-15T02:16:35;2.47;;;0.95;;
66163;SDS011;52962;51.088;3.096;2023-04-15T02:19:04;0.93;;;0.93;;
66163;SDS011;52962;51.088;3.096;2023-04-15T02:21:36;1.08;;;1.00;;
66163;SDS011;52962;51.088;3.096;2023-04-15T02:24:04;0.90;;;0.90;;
66163;SDS011;52962;51.088;3.096;2023-04-15T02:26:32;1.20;;;1.05;;
66163;SDS011;52962;51.088;3.096;2023-04-15T02:29:00;0.93;;;0.93;;
66163;SDS011;52962;51.088;3.096;2023-04-15T02:31:28;0.73;;;0.73;;
66163;SDS011;52962;51.088;3.096;2023-04-15T02:33:59;1.30;;;1.20;;
66163;SDS011;52962;51.088;3.096;2023-04-15T02:36:31;1.20;;;1.10;;
66163;SDS011;52962;51.088;3.096;2023-04-15T02:39:00;1.20;;;1.10;;
66163;SDS011;52962;51.088;3.096;2023-04-15T02:41:28;1.02;;;1.02;;
66163;SDS011;52962;51.088;3.096;2023-04-15T02:43:57;1.98;;;1.67;;
66163;SDS011;52962;51.088;3.096;2023-04-15T02:46:27;1.48;;;1.38;;
66163;SDS011;52962;51.088;3.096;2023-04-15T02:48:55;1.48;;;1.40;;
66163;SDS011;52962;51.088;3.096;2023-04-15T02:51:29;1.38;;;1.27;;
66163;SDS011;52962;51.088;3.096;2023-04-15T02:53:58;1.73;;;1.63;;
66163;SDS011;52962;51.088;3.096;2023-04-15T02:58:55;1.27;;;1.20;;
66163;SDS011;52962;51.088;3.096;2023-04-15T03:01:24;3.17;;;2.10;;
66163;SDS011;52962;51.088;3.096;2023-04-15T03:03:52;1.95;;;1.85;;
66163;SDS011;52962;51.088;3.096;2023-04-15T03:06:21;1.95;;;1.85;;
66163;SDS011;52962;51.088;3.096;2023-04-15T03:08:51;2.13;;;1.92;;
66163;SDS011;52962;51.088;3.096;2023-04-15T03:11:19;2.13;;;1.95;;
66163;SDS011;52962;51.088;3.096;2023-04-15T03:13:48;2.08;;;1.98;;
66163;SDS011;52962;51.088;3.096;2023-04-15T03:16:25;1.90;;;1.80;;
66163;SDS011;52962;51.088;3.096;2023-04-15T03:18:54;2.20;;;2.05;;
66163;SDS011;52962;51.088;3.096;2023-04-15T03:21:23;1.75;;;1.60;;
66163;SDS011;52962;51.088;3.096;2023-04-15T03:23:55;1.75;;;1.65;;
66163;SDS011;52962;51.088;3.096;2023-04-15T03:26:25;1.83;;;1.73;;
66163;SDS011;52962;51.088;3.096;2023-04-15T03:28:58;1.88;;;1.77;;
66163;SDS011;52962;51.088;3.096;2023-04-15T03:31:27;1.90;;;1.80;;
66163;SDS011;52962;51.088;3.096;2023-04-15T03:33:55;1.50;;;1.40;;
66163;SDS011;52962;51.088;3.096;2023-04-15T03:36:23;1.50;;;1.40;;
66163;SDS011;52962;51.088;3.096;2023-04-15T03:38:51;1.73;;;1.35;;
66163;SDS011;52962;51.088;3.096;2023-04-15T03:41:21;1.38;;;1.15;;
66163;SDS011;52962;51.088;3.096;2023-04-15T03:43:49;4.20;;;1.20;;
66163;SDS011;52962;51.088;3.096;2023-04-15T03:46:17;1.38;;;1.23;;
66163;SDS011;52962;51.088;3.096;2023-04-15T03:48:45;1.50;;;1.20;;
66163;SDS011;52962;51.088;3.096;2023-04-15T03:51:13;1.30;;;1.17;;
66163;SDS011;52962;51.088;3.096;2023-04-15T03:53:42;0.95;;;0.95;;
66163;SDS011;52962;51.088;3.096;2023-04-15T03:56:10;0.73;;;0.73;;
66163;SDS011;52962;51.088;3.096;2023-04-15T03:58:39;0.93;;;0.93;;
66163;SDS011;52962;51.088;3.096;2023-04-15T04:01:07;2.92;;;1.52;;
66163;SDS011;52962;51.088;3.096;2023-04-15T04:03:35;1.00;;;1.00;;
66163;SDS011;52962;51.088;3.096;2023-04-15T04:06:03;2.65;;;1.52;;
66163;SDS011;52962;51.088;3.096;2023-04-15T04:08:32;1.27;;;1.17;;
66163;SDS011;52962;51.088;3.096;2023-04-15T04:11:00;1.40;;;1.30;;
66163;SDS011;52962;51.088;3.096;2023-04-15T04:13:28;1.65;;;1.27;;
66163;SDS011;52962;51.088;3.096;2023-04-15T04:15:57;1.23;;;1.13;;
66163;SDS011;52962;51.088;3.096;2023-04-15T04:18:26;1.17;;;1.08;;
66163;SDS011;52962;51.088;3.096;2023-04-15T04:20:54;1.20;;;0.85;;
66163;SDS011;52962;51.088;3.096;2023-04-15T04:23:22;1.27;;;1.23;;
66163;SDS011;52962;51.088;3.096;2023-04-15T04:25:50;1.52;;;1.42;;
66163;SDS011;52962;51.088;3.096;2023-04-15T04:28:18;1.90;;;1.67;;
66163;SDS011;52962;51.088;3.096;2023-04-15T04:30:47;2.55;;;1.52;;
66163;SDS011;52962;51.088;3.096;2023-04-15T04:33:16;1.83;;;1.63;;
66163;SDS011;52962;51.088;3.096;2023-04-15T04:35:44;2.78;;;1.75;;
66163;SDS011;52962;51.088;3.096;2023-04-15T04:38:12;2.85;;;1.85;;
66163;SDS011;52962;51.088;3.096;2023-04-15T04:40:40;1.70;;;1.60;;
66163;SDS011;52962;51.088;3.096;2023-04-15T04:43:09;1.75;;;1.65;;
66163;SDS011;52962;51.088;3.096;2023-04-15T04:45:37;2.92;;;2.75;;
66163;SDS011;52962;51.088;3.096;2023-04-15T04:48:05;2.67;;;2.47;;
66163;SDS011;52962;51.088;3.096;2023-04-15T04:50:35;2.47;;;2.28;;
66163;SDS011;52962;51.088;3.096;2023-04-15T04:53:03;2.72;;;2.53;;
66163;SDS011;52962;51.088;3.096;2023-04-15T04:55:32;3.05;;;2.38;;
66163;SDS011;52962;51.088;3.096;2023-04-15T04:58:02;5.15;;;2.58;;
66163;SDS011;52962;51.088;3.096;2023-04-15T05:00:30;2.67;;;2.05;;
66163;SDS011;52962;51.088;3.096;2023-04-15T05:02:58;2.28;;;2.13;;
66163;SDS011;52962;51.088;3.096;2023-04-15T05:05:27;3.88;;;2.97;;
66163;SDS011;52962;51.088;3.096;2023-04-15T05:07:56;2.72;;;2.53;;
66163;SDS011;52962;51.088;3.096;2023-04-15T05:10:24;2.97;;;2.67;;
66163;SDS011;52962;51.088;3.096;2023-04-15T05:12:52;5.18;;;2.55;;
66163;SDS011;52962;51.088;3.096;2023-04-15T05:15:20;3.45;;;2.70;;
66163;SDS011;52962;51.088;3.096;2023-04-15T05:17:48;5.28;;;3.58;;
66163;SDS011;52962;51.088;3.096;2023-04-15T05:22:45;3.28;;;3.00;;
66163;SDS011;52962;51.088;3.096;2023-04-15T05:25:14;3.15;;;2.85;;
66163;SDS011;52962;51.088;3.096;2023-04-15T05:27:43;4.50;;;3.75;;
66163;SDS011;52962;51.088;3.096;2023-04-15T05:32:39;5.82;;;2.90;;
66163;SDS011;52962;51.088;3.096;2023-04-15T05:35:07;4.40;;;2.40;;
66163;SDS011;52962;51.088;3.096;2023-04-15T05:40:04;2.80;;;2.15;;
66163;SDS011;52962;51.088;3.096;2023-04-15T05:42:35;2.25;;;1.60;;
66163;SDS011;52962;51.088;3.096;2023-04-15T05:45:03;3.90;;;2.30;;
66163;SDS011;52962;51.088;3.096;2023-04-15T05:47:34;2.25;;;2.03;;
66163;SDS011;52962;51.088;3.096;2023-04-15T05:50:03;4.25;;;2.40;;
66163;SDS011;52962;51.088;3.096;2023-04-15T05:52:32;2.92;;;2.47;;
66163;SDS011;52962;51.088;3.096;2023-04-15T05:55:00;2.15;;;1.95;;
66163;SDS011;52962;51.088;3.096;2023-04-15T05:57:28;3.00;;;2.28;;
66163;SDS011;52962;51.088;3.096;2023-04-15T05:59:57;2.95;;;2.28;;
66163;SDS011;52962;51.088;3.096;2023-04-15T06:02:25;5.50;;;2.78;;
66163;SDS011;52962;51.088;3.096;2023-04-15T06:04:53;3.85;;;2.60;;
66163;SDS011;52962;51.088;3.096;2023-04-15T06:07:22;2.92;;;2.72;;
66163;SDS011;52962;51.088;3.096;2023-04-15T06:09:50;3.17;;;2.38;;
66163;SDS011;52962;51.088;3.096;2023-04-15T06:12:18;2.42;;;2.22;;
66163;SDS011;52962;51.088;3.096;2023-04-15T06:14:46;4.25;;;3.33;;
66163;SDS011;52962;51.088;3.096;2023-04-15T06:17:16;4.07;;;3.50;;
66163;SDS011;52962;51.088;3.096;2023-04-15T06:19:44;3.85;;;3.03;;
66163;SDS011;52962;51.088;3.096;2023-04-15T06:24:41;3.70;;;2.92;;
66163;SDS011;52962;51.088;3.096;2023-04-15T06:27:09;4.13;;;3.65;;
66163;SDS011;52962;51.088;3.096;2023-04-15T06:29:37;4.53;;;3.13;;
66163;SDS011;52962;51.088;3.096;2023-04-15T06:32:05;3.50;;;3.20;;
66163;SDS011;52962;51.088;3.096;2023-04-15T06:34:35;6.25;;;3.63;;
66163;SDS011;52962;51.088;3.096;2023-04-15T06:37:03;3.63;;;3.33;;
66163;SDS011;52962;51.088;3.096;2023-04-15T06:39:31;3.72;;;3.03;;
66163;SDS011;52962;51.088;3.096;2023-04-15T06:41:59;3.60;;;3.22;;
66163;SDS011;52962;51.088;3.096;2023-04-15T06:44:28;6.07;;;3.15;;
66163;SDS011;52962;51.088;3.096;2023-04-15T06:46:59;3.58;;;3.15;;
66163;SDS011;52962;51.088;3.096;2023-04-15T06:51:56;4.68;;;2.78;;
66163;SDS011;52962;51.088;3.096;2023-04-15T06:54:26;4.47;;;3.38;;
66163;SDS011;52962;51.088;3.096;2023-04-15T06:56:54;4.03;;;3.67;;
66163;SDS011;52962;51.088;3.096;2023-04-15T06:59:22;3.47;;;3.17;;
66163;SDS011;52962;51.088;3.096;2023-04-15T07:04:18;3.03;;;2.75;;
66163;SDS011;52962;51.088;3.096;2023-04-15T07:06:46;4.65;;;3.25;;
66163;SDS011;52962;51.088;3.096;2023-04-15T07:09:16;4.25;;;3.38;;
66163;SDS011;52962;51.088;3.096;2023-04-15T07:11:45;3.70;;;3.15;;
66163;SDS011;52962;51.088;3.096;2023-04-15T07:14:13;5.32;;;3.17;;
66163;SDS011;52962;51.088;3.096;2023-04-15T07:19:09;2.35;;;2.17;;
66163;SDS011;52962;51.088;3.096;2023-04-15T07:21:37;2.90;;;2.58;;
66163;SDS011;52962;51.088;3.096;2023-04-15T07:24:07;4.07;;;2.65;;
66163;SDS011;52962;51.088;3.096;2023-04-15T07:26:37;4.25;;;2.83;;
66163;SDS011;52962;51.088;3.096;2023-04-15T07:29:06;3.28;;;2.65;;
66163;SDS011;52962;51.088;3.096;2023-04-15T07:31:34;3.65;;;2.70;;
66163;SDS011;52962;51.088;3.096;2023-04-15T07:34:02;3.20;;;2.72;;
66163;SDS011;52962;51.088;3.096;2023-04-15T07:36:31;4.18;;;2.85;;
66163;SDS011;52962;51.088;3.096;2023-04-15T07:38:58;3.13;;;2.83;;
66163;SDS011;52962;51.088;3.096;2023-04-15T07:41:29;3.05;;;2.78;;
66163;SDS011;52962;51.088;3.096;2023-04-15T07:43:58;4.03;;;3.58;;
66163;SDS011;52962;51.088;3.096;2023-04-15T07:46:27;2.85;;;2.65;;
66163;SDS011;52962;51.088;3.096;2023-04-15T07:48:55;2.92;;;2.63;;
66163;SDS011;52962;51.088;3.096;2023-04-15T07:51:23;4.45;;;2.78;;
66163;SDS011;52962;51.088;3.096;2023-04-15T07:53:52;4.38;;;2.70;;
66163;SDS011;52962;51.088;3.096;2023-04-15T07:56:20;5.55;;;2.92;;
66163;SDS011;52962;51.088;3.096;2023-04-15T07:58:48;6.25;;;2.70;;
66163;SDS011;52962;51.088;3.096;2023-04-15T08:03:46;5.05;;;2.58;;
66163;SDS011;52962;51.088;3.096;2023-04-15T08:06:15;2.65;;;2.45;;
66163;SDS011;52962;51.088;3.096;2023-04-15T08:08:43;2.83;;;2.53;;
66163;SDS011;52962;51.088;3.096;2023-04-15T08:11:11;2.90;;;2.45;;
66163;SDS011;52962;51.088;3.096;2023-04-15T08:13:39;2.88;;;2.63;;
66163;SDS011;52962;51.088;3.096;2023-04-15T08:16:15;2.83;;;1.80;;
66163;SDS011;52962;51.088;3.096;2023-04-15T08:18:47;2.03;;;1.83;;
66163;SDS011;52962;51.088;3.096;2023-04-15T08:21:16;1.95;;;1.77;;
66163;SDS011;52962;51.088;3.096;2023-04-15T08:23:45;3.55;;;2.28;;
66163;SDS011;52962;51.088;3.096;2023-04-15T08:26:14;5.25;;;2.28;;
66163;SDS011;52962;51.088;3.096;2023-04-15T08:28:43;3.30;;;1.80;;
66163;SDS011;52962;51.088;3.096;2023-04-15T08:31:13;3.05;;;1.60;;
66163;SDS011;52962;51.088;3.096;2023-04-15T08:33:43;2.47;;;2.28;;
66163;SDS011;52962;51.088;3.096;2023-04-15T08:36:11;4.28;;;2.85;;
66163;SDS011;52962;51.088;3.096;2023-04-15T08:38:40;3.85;;;3.55;;
66163;SDS011;52962;51.088;3.096;2023-04-15T08:41:11;6.13;;;3.63;;
66163;SDS011;52962;51.088;3.096;2023-04-15T08:43:53;5.00;;;4.53;;
66163;SDS011;52962;51.088;3.096;2023-04-15T08:46:24;5.93;;;4.00;;
66163;SDS011;52962;51.088;3.096;2023-04-15T08:48:55;4.60;;;4.20;;
66163;SDS011;52962;51.088;3.096;2023-04-15T08:51:25;5.38;;;4.78;;
66163;SDS011;52962;51.088;3.096;2023-04-15T08:53:54;6.18;;;4.35;;
66163;SDS011;52962;51.088;3.096;2023-04-15T08:56:23;5.55;;;5.00;;
66163;SDS011;52962;51.088;3.096;2023-04-15T08:58:53;4.53;;;4.03;;
66163;SDS011;52962;51.088;3.096;2023-04-15T09:01:21;5.32;;;4.82;;
66163;SDS011;52962;51.088;3.096;2023-04-15T09:03:50;6.10;;;5.03;;
66163;SDS011;52962;51.088;3.096;2023-04-15T09:06:22;5.78;;;4.03;;
66163;SDS011;52962;51.088;3.096;2023-04-15T09:08:50;5.85;;;5.22;;
66163;SDS011;52962;51.088;3.096;2023-04-15T09:11:19;4.57;;;4.18;;
66163;SDS011;52962;51.088;3.096;2023-04-15T09:13:48;7.03;;;5.00;;
66163;SDS011;52962;51.088;3.096;2023-04-15T09:18:45;5.78;;;4.30;;
66163;SDS011;52962;51.088;3.096;2023-04-15T09:21:14;7.18;;;4.50;;
66163;SDS011;52962;51.088;3.096;2023-04-15T09:23:55;4.30;;;3.75;;
66163;SDS011;52962;51.088;3.096;2023-04-15T09:26:31;4.38;;;3.95;;
66163;SDS011;52962;51.088;3.096;2023-04-15T09:29:03;5.10;;;4.47;;
66163;SDS011;52962;51.088;3.096;2023-04-15T09:31:33;5.55;;;4.55;;
66163;SDS011;52962;51.088;3.096;2023-04-15T09:34:02;4.97;;;4.47;;
66163;SDS011;52962;51.088;3.096;2023-04-15T09:36:35;5.53;;;5.05;;
66163;SDS011;52962;51.088;3.096;2023-04-15T09:39:19;5.80;;;4.22;;
66163;SDS011;52962;51.088;3.096;2023-04-15T09:42:02;7.03;;;4.93;;
66163;SDS011;52962;51.088;3.096;2023-04-15T09:44:32;9.27;;;4.43;;
66163;SDS011;52962;51.088;3.096;2023-04-15T09:49:28;4.03;;;3.75;;
66163;SDS011;52962;51.088;3.096;2023-04-15T09:51:59;7.78;;;4.97;;
66163;SDS011;52962;51.088;3.096;2023-04-15T09:54:34;4.75;;;4.15;;
66163;SDS011;52962;51.088;3.096;2023-04-15T09:57:04;6.18;;;5.65;;
66163;SDS011;52962;51.088;3.096;2023-04-15T09:59:32;4.55;;;4.15;;
66163;SDS011;52962;51.088;3.096;2023-04-15T10:02:01;5.80;;;5.15;;
66163;SDS011;52962;51.088;3.096;2023-04-15T10:04:34;7.18;;;4.45;;
66163;SDS011;52962;51.088;3.096;2023-04-15T10:07:03;6.30;;;5.70;;
66163;SDS011;52962;51.088;3.096;2023-04-15T10:09:34;6.43;;;5.85;;
66163;SDS011;52962;51.088;3.096;2023-04-15T10:12:03;6.72;;;5.80;;
66163;SDS011;52962;51.088;3.096;2023-04-15T10:14:33;5.85;;;5.28;;
66163;SDS011;52962;51.088;3.096;2023-04-15T10:17:04;6.05;;;5.28;;
66163;SDS011;52962;51.088;3.096;2023-04-15T10:19:35;6.18;;;5.18;;
66163;SDS011;52962;51.088;3.096;2023-04-15T10:22:04;6.15;;;5.13;;
66163;SDS011;52962;51.088;3.096;2023-04-15T10:24:34;5.32;;;4.82;;
66163;SDS011;52962;51.088;3.096;2023-04-15T10:27:02;7.47;;;4.82;;
66163;SDS011;52962;51.088;3.096;2023-04-15T10:29:33;7.15;;;5.45;;
66163;SDS011;52962;51.088;3.096;2023-04-15T10:32:01;4.90;;;4.47;;
66163;SDS011;52962;51.088;3.096;2023-04-15T10:34:30;5.50;;;5.00;;
66163;SDS011;52962;51.088;3.096;2023-04-15T10:37:00;6.10;;;5.38;;
66163;SDS011;52962;51.088;3.096;2023-04-15T10:39:42;4.65;;;4.35;;
66163;SDS011;52962;51.088;3.096;2023-04-15T10:42:11;4.72;;;4.38;;
66163;SDS011;52962;51.088;3.096;2023-04-15T10:44:41;4.72;;;4.18;;
66163;SDS011;52962;51.088;3.096;2023-04-15T10:47:11;7.50;;;4.57;;
66163;SDS011;52962;51.088;3.096;2023-04-15T10:49:44;5.47;;;4.70;;
66163;SDS011;52962;51.088;3.096;2023-04-15T10:52:14;4.85;;;4.43;;
66163;SDS011;52962;51.088;3.096;2023-04-15T10:54:44;4.47;;;4.18;;
66163;SDS011;52962;51.088;3.096;2023-04-15T10:57:13;5.97;;;4.63;;
66163;SDS011;52962;51.088;3.096;2023-04-15T11:02:37;3.72;;;3.47;;
66163;SDS011;52962;51.088;3.096;2023-04-15T11:05:10;4.97;;;3.95;;
66163;SDS011;52962;51.088;3.096;2023-04-15T11:07:39;6.70;;;3.97;;
66163;SDS011;52962;51.088;3.096;2023-04-15T11:13:24;5.88;;;4.15;;
66163;SDS011;52962;51.088;3.096;2023-04-15T11:15:56;5.05;;;4.55;;
66163;SDS011;52962;51.088;3.096;2023-04-15T11:18:29;5.20;;;4.38;;
66163;SDS011;52962;51.088;3.096;2023-04-15T11:20:59;7.30;;;4.20;;
66163;SDS011;52962;51.088;3.096;2023-04-15T11:23:31;3.17;;;2.97;;
66163;SDS011;52962;51.088;3.096;2023-04-15T11:26:00;5.03;;;4.68;;
66163;SDS011;52962;51.088;3.096;2023-04-15T11:28:32;4.22;;;3.83;;
66163;SDS011;52962;51.088;3.096;2023-04-15T11:31:06;4.93;;;4.05;;
66163;SDS011;52962;51.088;3.096;2023-04-15T11:33:38;3.60;;;3.30;;
66163;SDS011;52962;51.088;3.096;2023-04-15T11:36:12;5.18;;;4.47;;
66163;SDS011;52962;51.088;3.096;2023-04-15T11:38:44;5.30;;;4.80;;
66163;SDS011;52962;51.088;3.096;2023-04-15T11:41:14;7.65;;;4.93;;
66163;SDS011;52962;51.088;3.096;2023-04-15T11:43:48;5.32;;;4.82;;
66163;SDS011;52962;51.088;3.096;2023-04-15T11:46:16;7.32;;;5.40;;
66163;SDS011;52962;51.088;3.096;2023-04-15T11:48:45;8.30;;;4.65;;
66163;SDS011;52962;51.088;3.096;2023-04-15T11:51:13;3.97;;;3.17;;
66163;SDS011;52962;51.088;3.096;2023-04-15T11:53:42;6.57;;;5.57;;
66163;SDS011;52962;51.088;3.096;2023-04-15T11:56:16;5.40;;;4.90;;
66163;SDS011;52962;51.088;3.096;2023-04-15T11:58:45;3.80;;;3.42;;
66163;SDS011;52962;51.088;3.096;2023-04-15T12:01:17;6.03;;;4.47;;
66163;SDS011;52962;51.088;3.096;2023-04-15T12:03:46;5.75;;;5.25;;
66163;SDS011;52962;51.088;3.096;2023-04-15T12:06:16;5.18;;;4.72;;
66163;SDS011;52962;51.088;3.096;2023-04-15T12:11:36;4.68;;;4.18;;
66163;SDS011;52962;51.088;3.096;2023-04-15T12:14:10;5.15;;;4.72;;
66163;SDS011;52962;51.088;3.096;2023-04-15T12:16:41;7.05;;;5.75;;
66163;SDS011;52962;51.088;3.096;2023-04-15T12:19:16;5.28;;;4.78;;
66163;SDS011;52962;51.088;3.096;2023-04-15T12:21:47;5.20;;;4.70;;
66163;SDS011;52962;51.088;3.096;2023-04-15T12:24:18;8.68;;;4.78;;
66163;SDS011;52962;51.088;3.096;2023-04-15T12:26:49;7.18;;;5.38;;
66163;SDS011;52962;51.088;3.096;2023-04-15T12:29:19;5.05;;;4.65;;
66163;SDS011;52962;51.088;3.096;2023-04-15T12:31:55;6.22;;;4.82;;
66163;SDS011;52962;51.088;3.096;2023-04-15T12:34:27;7.72;;;4.80;;
66163;SDS011;52962;51.088;3.096;2023-04-15T12:36:57;5.75;;;5.13;;
66163;SDS011;52962;51.088;3.096;2023-04-15T12:39:27;5.28;;;4.78;;
66163;SDS011;52962;51.088;3.096;2023-04-15T12:41:56;6.55;;;5.88;;
66163;SDS011;52962;51.088;3.096;2023-04-15T12:44:26;4.55;;;4.07;;
66163;SDS011;52962;51.088;3.096;2023-04-15T12:46:56;4.78;;;4.38;;
66163;SDS011;52962;51.088;3.096;2023-04-15T12:49:25;5.32;;;4.80;;
66163;SDS011;52962;51.088;3.096;2023-04-15T12:51:54;5.93;;;5.43;;
66163;SDS011;52962;51.088;3.096;2023-04-15T12:54:25;6.15;;;5.55;;
66163;SDS011;52962;51.088;3.096;2023-04-15T12:56:54;7.20;;;5.28;;
66163;SDS011;52962;51.088;3.096;2023-04-15T12:59:22;6.40;;;5.85;;
66163;SDS011;52962;51.088;3.096;2023-04-15T13:01:51;4.57;;;4.18;;
66163;SDS011;52962;51.088;3.096;2023-04-15T13:04:21;5.03;;;4.60;;
66163;SDS011;52962;51.088;3.096;2023-04-15T13:06:49;5.82;;;5.20;;
66163;SDS011;52962;51.088;3.096;2023-04-15T13:11:45;6.22;;;5.57;;
66163;SDS011;52962;51.088;3.096;2023-04-15T13:14:13;6.03;;;5.50;;
66163;SDS011;52962;51.088;3.096;2023-04-15T13:16:41;7.38;;;5.60;;
66163;SDS011;52962;51.088;3.096;2023-04-15T13:19:09;6.03;;;5.50;;
66163;SDS011;52962;51.088;3.096;2023-04-15T13:24:07;6.95;;;5.75;;
66163;SDS011;52962;51.088;3.096;2023-04-15T13:26:36;11.20;;;5.63;;
66163;SDS011;52962;51.088;3.096;2023-04-15T13:29:04;5.45;;;4.53;;
66163;SDS011;52962;51.088;3.096;2023-04-15T13:31:32;5.70;;;5.20;;
66163;SDS011;52962;51.088;3.096;2023-04-15T13:34:00;6.93;;;4.68;;
66163;SDS011;52962;51.088;3.096;2023-04-15T13:36:28;7.50;;;5.93;;
66163;SDS011;52962;51.088;3.096;2023-04-15T13:41:26;5.93;;;5.32;;
66163;SDS011;52962;51.088;3.096;2023-04-15T13:46:23;5.45;;;4.95;;
66163;SDS011;52962;51.088;3.096;2023-04-15T13:48:52;6.57;;;5.90;;
66163;SDS011;52962;51.088;3.096;2023-04-15T13:53:49;6.00;;;4.28;;
66163;SDS011;52962;51.088;3.096;2023-04-15T13:56:18;5.57;;;4.55;;
66163;SDS011;52962;51.088;3.096;2023-04-15T13:58:47;5.18;;;4.68;;
66163;SDS011;52962;51.088;3.096;2023-04-15T14:01:15;7.10;;;4.22;;
66163;SDS011;52962;51.088;3.096;2023-04-15T14:06:11;5.97;;;4.10;;
66163;SDS011;52962;51.088;3.096;2023-04-15T14:08:39;3.08;;;2.88;;
66163;SDS011;52962;51.088;3.096;2023-04-15T14:11:07;3.85;;;3.10;;
66163;SDS011;52962;51.088;3.096;2023-04-15T14:13:37;3.72;;;3.42;;
66163;SDS011;52962;51.088;3.096;2023-04-15T14:16:05;5.50;;;4.32;;
66163;SDS011;52962;51.088;3.096;2023-04-15T14:18:34;6.35;;;3.67;;
66163;SDS011;52962;51.088;3.096;2023-04-15T14:21:03;2.85;;;2.65;;
66163;SDS011;52962;51.088;3.096;2023-04-15T14:23:32;3.58;;;3.28;;
66163;SDS011;52962;51.088;3.096;2023-04-15T14:26:00;3.00;;;2.75;;
66163;SDS011;52962;51.088;3.096;2023-04-15T14:28:28;2.92;;;2.72;;
66163;SDS011;52962;51.088;3.096;2023-04-15T14:30:58;2.92;;;2.63;;
66163;SDS011;52962;51.088;3.096;2023-04-15T14:33:27;2.97;;;2.30;;
66163;SDS011;52962;51.088;3.096;2023-04-15T14:35:55;4.28;;;3.50;;
66163;SDS011;52962;51.088;3.096;2023-04-15T14:38:23;2.40;;;2.20;;
66163;SDS011;52962;51.088;3.096;2023-04-15T14:40:51;2.50;;;1.80;;
66163;SDS011;52962;51.088;3.096;2023-04-15T14:43:20;2.05;;;1.48;;
66163;SDS011;52962;51.088;3.096;2023-04-15T14:48:18;2.38;;;1.73;;
66163;SDS011;52962;51.088;3.096;2023-04-15T14:50:46;1.95;;;1.65;;
66163;SDS011;52962;51.088;3.096;2023-04-15T14:53:14;2.72;;;1.60;;
66163;SDS011;52962;51.088;3.096;2023-04-15T14:55:42;3.67;;;1.70;;
66163;SDS011;52962;51.088;3.096;2023-04-15T14:58:11;3.72;;;1.65;;
66163;SDS011;52962;51.088;3.096;2023-04-15T15:00:39;3.25;;;1.33;;
66163;SDS011;52962;51.088;3.096;2023-04-15T15:03:10;2.88;;;1.33;;
66163;SDS011;52962;51.088;3.096;2023-04-15T15:05:41;2.63;;;1.20;;
66163;SDS011;52962;51.088;3.096;2023-04-15T15:08:11;1.63;;;1.52;;
66163;SDS011;52962;51.088;3.096;2023-04-15T15:10:39;2.05;;;1.27;;
66163;SDS011;52962;51.088;3.096;2023-04-15T15:13:15;2.58;;;1.83;;
66163;SDS011;52962;51.088;3.096;2023-04-15T15:15:44;2.92;;;1.88;;
66163;SDS011;52962;51.088;3.096;2023-04-15T15:18:15;3.17;;;1.60;;
66163;SDS011;52962;51.088;3.096;2023-04-15T15:20:45;1.80;;;1.70;;
66163;SDS011;52962;51.088;3.096;2023-04-15T15:23:14;1.50;;;1.15;;
66163;SDS011;52962;51.088;3.096;2023-04-15T15:25:42;1.38;;;1.20;;
66163;SDS011;52962;51.088;3.096;2023-04-15T15:28:12;3.42;;;1.48;;
66163;SDS011;52962;51.088;3.096;2023-04-15T15:30:40;2.35;;;1.77;;
66163;SDS011;52962;51.088;3.096;2023-04-15T15:33:08;1.33;;;1.20;;
66163;SDS011;52962;51.088;3.096;2023-04-15T15:35:36;1.92;;;1.20;;
66163;SDS011;52962;51.088;3.096;2023-04-15T15:38:06;2.33;;;1.38;;
66163;SDS011;52962;51.088;3.096;2023-04-15T15:40:37;1.60;;;1.10;;
66163;SDS011;52962;51.088;3.096;2023-04-15T15:43:05;1.30;;;1.20;;
66163;SDS011;52962;51.088;3.096;2023-04-15T15:45:34;0.80;;;0.80;;
66163;SDS011;52962;51.088;3.096;2023-04-15T15:48:02;1.48;;;1.05;;
66163;SDS011;52962;51.088;3.096;2023-04-15T15:50:32;3.35;;;1.33;;
66163;SDS011;52962;51.088;3.096;2023-04-15T15:53:00;1.33;;;0.70;;
66163;SDS011;52962;51.088;3.096;2023-04-15T15:55:30;1.75;;;0.98;;
66163;SDS011;52962;51.088;3.096;2023-04-15T15:57:58;3.85;;;1.35;;
66163;SDS011;52962;51.088;3.096;2023-04-15T16:00:26;1.48;;;0.95;;
66163;SDS011;52962;51.088;3.096;2023-04-15T16:02:54;1.90;;;0.90;;
66163;SDS011;52962;51.088;3.096;2023-04-15T16:05:26;2.47;;;1.00;;